Time;durP1;ratioP1;P1;durP2;ratioP2;P2;SDS_P1;SDS_P2;PMS_P1;PMS_P2;Temp;Humidity;BMP_temperature;BMP_pressure;BME280_temperature;BME280_humidity;BME280_pressure;Samples;Min_cycle;Max_cycle;Signal;HPM_P1;HPM_P2
2022/02/03 00:00:18;;;;;;;43.20;20.55;;;1.90;53.90;;;;;;5064906;28;20040;-79
2022/02/03 00:02:58;;;;;;;28.85;14.27;;;1.90;53.90;;;;;;5064632;28;20343;-75
2022/02/03 00:05:41;;;;;;;27.83;12.30;;;1.80;53.80;;;;;;5051034;28;20124;-75
2022/02/03 00:16:55;;;;;;;31.67;13.48;;;1.40;54.70;;;;;;5051376;28;20536;-75
2022/02/03 00:22:17;;;;;;;37.05;16.58;;;1.40;54.80;;;;;;5051667;28;20056;-75
2022/02/03 00:25:29;;;;;;;51.38;22.30;;;1.40;54.60;;;;;;5052864;28;20040;-75
2022/02/03 00:28:22;;;;;;;40.72;18.40;;;1.40;54.60;;;;;;5061021;28;20041;-75
2022/02/03 00:34:00;;;;;;;32.78;14.43;;;1.30;54.60;;;;;;5051117;28;20449;-74
2022/02/03 00:36:41;;;;;;;28.50;12.43;;;1.30;54.80;;;;;;5045999;28;20401;-77
2022/02/03 00:50:05;;;;;;;45.78;16.13;;;1.30;55.00;;;;;;5036495;28;20051;-74
2022/02/03 00:52:49;;;;;;;;;;;1.30;55.00;;;;;;5052179;28;20037;-74
2022/02/03 00:55:16;;;;;;;24.10;10.45;;;1.20;54.40;;;;;;5051214;28;19913;-77
2022/02/03 00:58:01;;;;;;;18.77;7.90;;;1.20;54.90;;;;;;5052045;28;20036;-74
2022/02/03 01:00:33;;;;;;;21.48;7.68;;;1.10;55.40;;;;;;5032670;28;20063;-74
2022/02/03 01:03:19;;;;;;;18.63;7.22;;;1.10;55.80;;;;;;5051480;28;20056;-74
2022/02/03 01:05:47;;;;;;;20.23;8.32;;;1.10;55.80;;;;;;5051460;28;20041;-77
2022/02/03 01:08:20;;;;;;;19.17;7.85;;;1.10;55.60;;;;;;5050196;28;20037;-77
2022/02/03 01:11:05;;;;;;;24.20;8.52;;;1.00;55.70;;;;;;5050443;28;20111;-77
2022/02/03 01:13:47;;;;;;;21.65;8.73;;;1.00;56.00;;;;;;5049937;28;20075;-74
2022/02/03 01:19:27;;;;;;;13.95;6.70;;;0.90;56.20;;;;;;5033944;28;20025;-77
2022/02/03 01:45:15;;;;;;;20.20;9.05;;;0.90;56.00;;;;;;5049529;28;20087;-74
2022/02/03 01:53:44;;;;;;;39.70;15.02;;;0.70;56.10;;;;;;5049035;28;20122;-74
2022/02/03 01:56:34;;;;;;;48.70;20.42;;;0.70;56.20;;;;;;5049119;28;20473;-73
2022/02/03 01:59:04;;;;;;;30.73;15.45;;;0.70;56.30;;;;;;5050484;28;20044;-76
2022/02/03 02:01:33;;;;;;;38.25;15.07;;;0.70;56.30;;;;;;5032179;28;20045;-74
2022/02/03 02:04:35;;;;;;;32.63;13.43;;;0.60;56.70;;;;;;5033018;28;20067;-74
2022/02/03 02:07:39;;;;;;;34.72;14.18;;;0.50;57.00;;;;;;5049013;28;20077;-75
2022/02/03 02:14:08;;;;;;;30.27;12.05;;;0.40;56.70;;;;;;5038050;28;20045;-74
2022/02/03 02:36:52;;;;;;;29.25;12.77;;;0.30;57.10;;;;;;5048840;28;20033;-76
2022/02/03 02:40:48;;;;;;;43.17;16.83;;;0.30;57.00;;;;;;5038058;28;20052;-80
2022/02/03 02:43:36;;;;;;;34.85;16.73;;;0.20;56.90;;;;;;5049651;28;20393;-80
2022/02/03 02:46:42;;;;;;;28.05;13.60;;;0.20;57.10;;;;;;5029223;28;20042;-80
2022/02/03 02:50:06;;;;;;;28.38;11.98;;;0.10;57.30;;;;;;5031816;28;20094;-80
2022/02/03 02:52:42;;;;;;;33.17;13.25;;;0.10;57.30;;;;;;5048178;28;20052;-78
2022/02/03 03:29:59;;;;;;;29.02;12.70;;;-0.30;57.40;;;;;;5047841;28;20055;-78
2022/02/03 03:33:08;;;;;;;30.35;12.85;;;-0.30;58.10;;;;;;5048145;28;20102;-78
2022/02/03 03:35:47;;;;;;;28.90;13.07;;;-0.30;58.00;;;;;;5045010;28;20047;-81
2022/02/03 03:38:40;;;;;;;33.80;15.77;;;-0.30;57.90;;;;;;5032685;28;20501;-80
2022/02/03 03:41:07;;;;;;;35.38;16.52;;;-0.30;58.20;;;;;;5054494;28;20359;-79
2022/02/03 03:43:43;;;;;;;38.95;16.98;;;-0.30;58.00;;;;;;5038108;28;20482;-78
2022/02/03 03:46:21;;;;;;;31.77;13.80;;;-0.30;58.20;;;;;;5038298;28;20041;-78
2022/02/03 03:49:46;;;;;;;27.23;13.00;;;-0.30;58.20;;;;;;5054745;28;20028;-75
2022/02/03 03:52:22;;;;;;;19.48;9.43;;;-0.30;58.20;;;;;;5055375;28;20064;-77
2022/02/03 03:55:18;;;;;;;28.33;11.10;;;-0.30;57.90;;;;;;5055512;28;20048;-77
2022/02/03 03:58:06;;;;;;;22.77;10.45;;;-0.30;57.70;;;;;;5054574;28;20486;-81
2022/02/03 04:00:54;;;;;;;24.67;9.95;;;-0.40;58.10;;;;;;5039782;28;20492;-81
2022/02/03 05:06:04;;;;;;;34.88;15.20;;;-0.80;58.90;;;;;;5036348;28;20103;-76
2022/02/03 05:23:53;;;;;;;25.90;11.55;;;-0.90;59.10;;;;;;5035430;28;20081;-76
2022/02/03 05:47:15;;;;;;;20.33;8.77;;;-1.10;59.50;;;;;;5050637;28;20041;-80
2022/02/03 05:50:01;;;;;;;20.17;8.35;;;-1.00;59.50;;;;;;5050339;28;20053;-80
2022/02/03 06:08:57;;;;;;;21.25;8.80;;;-1.20;59.60;;;;;;5049850;28;20135;-80
2022/02/03 06:22:54;;;;;;;39.33;16.40;;;-1.10;59.50;;;;;;5045679;28;20068;-76
2022/02/03 06:27:49;;;;;;;;;;;-1.10;59.80;;;;;;5038550;28;20102;-76
2022/02/03 06:30:34;;;;;;;44.47;20.90;;;-1.10;58.80;;;;;;5032347;28;19928;-76
2022/02/03 06:33:00;;;;;;;45.40;24.80;;;-1.10;59.50;;;;;;5031726;28;20049;-79
2022/02/03 06:35:27;;;;;;;;;;;-1.10;59.40;;;;;;5032081;28;20033;-80
2022/02/03 06:37:53;;;;;;;43.30;19.25;;;-1.20;58.60;;;;;;5048366;28;19916;-77
2022/02/03 06:40:19;;;;;;;;;;;-1.10;59.40;;;;;;5049563;28;20033;-77
2022/02/03 06:42:46;;;;;;;47.92;25.00;;;-1.10;58.60;;;;;;5048537;28;19927;-76
2022/02/03 06:45:33;;;;;;;65.47;29.15;;;-1.10;59.10;;;;;;5028412;28;20045;-80
2022/02/03 06:50:52;;;;;;;50.15;22.95;;;-1.10;59.30;;;;;;5049498;28;20402;-77
2022/02/03 06:53:20;;;;;;;36.72;17.90;;;-1.10;59.30;;;;;;5048140;28;20502;-77
2022/02/03 06:56:04;;;;;;;25.70;13.50;;;-1.10;60.20;;;;;;5049034;28;20040;-78
2022/02/03 06:58:37;;;;;;;28.33;12.43;;;-1.10;60.20;;;;;;5050177;28;20174;-76
2022/02/03 07:04:02;;;;;;;35.38;16.83;;;-1.00;59.40;;;;;;5032074;28;20037;-80
2022/02/03 07:06:29;;;;;;;35.33;17.15;;;-1.00;59.40;;;;;;5032718;28;20059;-80
2022/02/03 07:08:56;;;;;;;34.10;16.98;;;-1.00;59.30;;;;;;5048320;28;20125;-77
2022/02/03 07:11:24;;;;;;;29.73;14.52;;;-1.00;59.30;;;;;;5048095;28;20443;-77
2022/02/03 07:13:50;;;;;;;34.78;16.13;;;-0.90;59.40;;;;;;5050388;28;20043;-80
2022/02/03 07:16:16;;;;;;;28.17;14.55;;;-0.90;59.50;;;;;;5032590;28;20223;-77
2022/02/03 07:18:42;;;;;;;30.63;16.33;;;-0.80;59.30;;;;;;5040333;28;20103;-77
2022/02/03 07:21:12;;;;;;;;;;;-0.70;59.40;;;;;;5036085;28;20334;-80
2022/02/03 07:23:39;;;;;;;59.42;28.75;;;-0.70;59.00;;;;;;5044828;28;19966;-76
2022/02/03 07:26:05;;;;;;;61.92;27.30;;;-0.70;58.50;;;;;;5035863;28;20099;-79
2022/02/03 07:28:33;;;;;;;;;;;-0.60;59.20;;;;;;5052989;28;20033;-80
2022/02/03 07:30:59;;;;;;;76.95;36.17;;;-0.60;59.00;;;;;;5051748;28;19920;-80
2022/02/03 07:33:25;;;;;;;;;;;-0.50;59.10;;;;;;5052108;28;20079;-80
2022/02/03 07:35:52;;;;;;;57.55;26.38;;;-0.50;58.40;;;;;;5052770;28;19921;-77
2022/02/03 07:38:40;;;;;;;49.22;24.63;;;-0.40;59.00;;;;;;5051448;28;20128;-77
2022/02/03 07:41:06;;;;;;;30.20;15.70;;;-0.40;59.30;;;;;;5051395;28;20028;-80
2022/02/03 07:43:32;;;;;;;33.22;16.42;;;-0.40;59.60;;;;;;5054311;28;20037;-77
2022/02/03 07:45:59;;;;;;;36.38;18.27;;;-0.30;59.70;;;;;;5051953;28;20432;-77
2022/02/03 07:48:25;;;;;;;;;;;-0.20;59.60;;;;;;5051850;28;20044;-80
2022/02/03 07:50:51;;;;;;;36.08;14.75;;;-0.10;59.30;;;;;;5051480;28;19927;-77
2022/02/03 07:53:17;;;;;;;26.33;14.98;;;-0.10;59.20;;;;;;5051143;28;20091;-77
2022/02/03 07:55:43;;;;;;;26.48;13.35;;;0.00;59.30;;;;;;5051669;28;20025;-80
2022/02/03 07:58:10;;;;;;;23.30;12.20;;;0.10;59.40;;;;;;5051308;28;20056;-78
2022/02/03 08:00:36;;;;;;;24.33;10.25;;;0.10;59.60;;;;;;5052786;28;20037;-75
2022/02/03 08:03:10;;;;;;;28.75;11.85;;;0.30;59.60;;;;;;5051873;28;20045;-78
2022/02/03 08:05:37;;;;;;;24.40;12.60;;;0.30;59.60;;;;;;5051288;28;20037;-75
2022/02/03 08:08:12;;;;;;;26.80;11.13;;;0.50;59.70;;;;;;5052324;28;20021;-78
2022/02/03 08:10:44;;;;;;;24.90;11.70;;;0.50;59.20;;;;;;5051569;28;20493;-75
2022/02/03 08:13:15;;;;;;;21.92;10.07;;;0.70;59.90;;;;;;5052104;28;20717;-74
2022/02/03 08:15:42;;;;;;;25.52;11.73;;;0.70;59.90;;;;;;5050895;28;20033;-78
2022/02/03 08:18:14;;;;;;;24.58;10.18;;;0.90;59.90;;;;;;5050508;28;20036;-78
2022/02/03 08:20:48;;;;;;;22.73;10.60;;;0.90;59.70;;;;;;5035337;28;20583;-75
2022/02/03 08:26:54;;;;;;;27.10;10.50;;;1.20;59.40;;;;;;5053102;28;20051;-77
2022/02/03 08:29:46;;;;;;;24.17;10.02;;;1.30;59.50;;;;;;5014980;28;20045;-79
2022/02/03 08:32:11;;;;;;;18.85;8.80;;;1.40;59.10;;;;;;5050189;28;20581;-81
2022/02/03 08:34:59;;;;;;;17.30;9.00;;;1.60;59.20;;;;;;5051748;28;20129;-79
2022/02/03 08:37:41;;;;;;;20.63;9.85;;;1.70;59.10;;;;;;5033436;28;20095;-78
2022/02/03 08:40:28;;;;;;;20.13;10.35;;;1.80;58.40;;;;;;5050690;28;20051;-77
2022/02/03 08:42:55;;;;;;;28.70;12.25;;;2.10;58.80;;;;;;5035269;28;20041;-75
2022/02/03 08:45:21;;;;;;;;;;;2.30;58.70;;;;;;5051062;28;20044;-75
2022/02/03 08:47:50;;;;;;;19.80;9.38;;;2.40;58.30;;;;;;5050726;28;19948;-78
2022/02/03 08:50:17;;;;;;;24.70;10.55;;;2.70;58.20;;;;;;5050588;28;20078;-75
2022/02/03 08:59:06;;;;;;;30.33;15.18;;;8.70;47.70;;;;;;5047090;28;20033;-75
2022/02/03 09:56:42;;;;;;;6.57;2.72;;;16.50;30.70;;;;;;5050508;28;20048;-77
2022/02/03 09:59:50;;;;;;;7.28;2.35;;;15.70;30.60;;;;;;5049307;28;20067;-80
2022/02/03 10:02:23;;;;;;;6.55;2.67;;;14.70;31.50;;;;;;5048790;28;20075;-80
2022/02/03 10:07:21;;;;;;;8.45;3.63;;;15.00;30.70;;;;;;5048929;28;20041;-81
2022/02/03 10:10:09;;;;;;;8.27;1.83;;;15.60;30.00;;;;;;5047911;28;20041;-76
2022/02/03 10:12:56;;;;;;;6.18;2.40;;;15.30;29.00;;;;;;5033319;28;20189;-76
2022/02/03 10:15:31;;;;;;;10.80;4.43;;;15.00;29.60;;;;;;5048940;28;20031;-78
2022/02/03 10:18:03;;;;;;;5.15;1.50;;;15.80;29.00;;;;;;5049333;28;20493;-77
2022/02/03 10:20:33;;;;;;;5.93;1.70;;;15.30;29.70;;;;;;5029277;28;20036;-80
2022/02/03 10:23:05;;;;;;;8.60;2.83;;;14.80;28.70;;;;;;5049884;28;20124;-80
2022/02/03 10:25:36;;;;;;;6.70;1.90;;;15.10;29.40;;;;;;5049909;28;20120;-77
2022/02/03 10:28:21;;;;;;;8.52;1.60;;;15.60;28.60;;;;;;5048403;28;20469;-77
2022/02/03 10:31:03;;;;;;;6.22;2.50;;;15.40;28.00;;;;;;5030769;28;20060;-81
2022/02/03 10:33:39;;;;;;;7.72;1.80;;;14.80;29.10;;;;;;5048303;28;20055;-77
2022/02/03 10:36:25;;;;;;;10.27;3.67;;;15.80;28.40;;;;;;5048799;28;20141;-77
2022/02/03 10:39:24;;;;;;;7.85;2.58;;;15.90;27.60;;;;;;5048470;28;20049;-80
2022/02/03 11:11:35;;;;;;;6.82;2.75;;;14.80;28.40;;;;;;5047767;28;20041;-77
2022/02/03 11:14:30;;;;;;;6.65;2.40;;;14.90;29.40;;;;;;5048194;28;20063;-80
2022/02/03 11:17:05;;;;;;;5.82;2.15;;;14.90;29.10;;;;;;5048307;28;20120;-77
2022/02/03 11:19:34;;;;;;;6.00;2.17;;;14.70;29.00;;;;;;5049141;28;20041;-77
2022/02/03 11:22:07;;;;;;;7.93;2.08;;;14.60;29.10;;;;;;5048111;28;20044;-80
2022/02/03 11:24:42;;;;;;;6.57;2.67;;;14.50;29.30;;;;;;5049307;28;20114;-77
2022/02/03 11:27:25;;;;;;;7.72;2.40;;;14.10;29.80;;;;;;5048578;28;20033;-81
2022/02/03 11:52:29;;;;;;;5.55;2.25;;;13.00;31.60;;;;;;5047722;28;20107;-77
2022/02/03 11:55:59;;;;;;;5.72;2.25;;;12.90;31.80;;;;;;5032576;28;20063;-80
2022/02/03 12:02:11;;;;;;;8.55;2.92;;;12.80;32.00;;;;;;5050812;28;20052;-80
2022/02/03 12:05:20;;;;;;;45.65;18.88;;;12.90;31.70;;;;;;5037552;28;20060;-76
2022/02/03 12:14:44;;;;;;;5.35;2.38;;;13.20;31.70;;;;;;5051533;28;20072;-77
2022/02/03 12:17:26;;;;;;;6.03;1.98;;;13.10;31.30;;;;;;5039988;28;20040;-76
2022/02/03 12:20:27;;;;;;;7.72;2.33;;;13.30;30.90;;;;;;5050940;28;20060;-81
2022/02/03 12:23:12;;;;;;;6.53;2.58;;;13.20;30.80;;;;;;5038514;28;20497;-77
2022/02/03 12:26:04;;;;;;;5.88;2.03;;;13.10;31.50;;;;;;5052174;28;20045;-80
2022/02/03 12:28:50;;;;;;;6.53;2.58;;;12.80;31.90;;;;;;5050866;28;20045;-80
2022/02/03 12:31:53;;;;;;;6.72;2.88;;;12.60;31.90;;;;;;5051236;28;20390;-77
2022/02/03 12:37:14;;;;;;;7.35;2.95;;;12.80;32.30;;;;;;5050819;28;20048;-77
2022/02/03 12:39:59;;;;;;;7.82;2.50;;;13.00;31.70;;;;;;5035218;28;20037;-80
2022/02/03 12:45:18;;;;;;;7.35;2.50;;;13.10;31.30;;;;;;5052253;28;20112;-77
2022/02/03 12:47:51;;;;;;;8.02;2.72;;;12.90;31.20;;;;;;5047218;28;20045;-77
2022/02/03 12:50:42;;;;;;;7.50;3.22;;;13.10;31.70;;;;;;5030511;28;20079;-77
2022/02/03 12:53:09;;;;;;;11.32;4.15;;;13.60;31.00;;;;;;5035049;28;20071;-77
2022/02/03 12:55:40;;;;;;;7.28;2.83;;;14.30;30.70;;;;;;5050413;28;20043;-77
2022/02/03 12:58:27;;;;;;;11.85;5.00;;;14.90;29.70;;;;;;5051555;28;20055;-77
2022/02/03 13:01:29;;;;;;;9.65;4.32;;;16.10;28.70;;;;;;5033547;28;20124;-77
2022/02/03 13:03:56;;;;;;;7.82;2.58;;;17.50;27.20;;;;;;5036171;28;20045;-78
2022/02/03 13:06:27;;;;;;;7.60;3.13;;;21.00;22.70;;;;;;5050293;28;20041;-81
2022/02/03 13:09:18;;;;;;;12.77;4.00;;;23.00;21.10;;;;;;5035611;28;20041;-80
2022/02/03 13:11:51;;;;;;;10.70;2.60;;;24.30;20.00;;;;;;5050315;28;20339;-80
2022/02/03 13:14:38;;;;;;;6.72;2.50;;;25.50;18.00;;;;;;5049968;28;20051;-80
2022/02/03 13:22:46;;;;;;;7.30;3.50;;;23.00;19.90;;;;;;5049876;28;20536;-80
2022/02/03 13:33:43;;;;;;;6.07;2.08;;;26.10;17.30;;;;;;5049592;28;20601;-81
2022/02/03 13:36:25;;;;;;;5.80;2.17;;;25.60;16.80;;;;;;5051052;28;20033;-81
2022/02/03 13:39:36;;;;;;;5.93;2.00;;;26.50;16.70;;;;;;5049644;28;20727;-77
2022/02/03 13:42:22;;;;;;;7.47;2.40;;;23.70;18.10;;;;;;5035246;28;20045;-77
2022/02/03 13:44:48;;;;;;;6.47;2.35;;;24.00;19.20;;;;;;5028379;28;20410;-80
2022/02/03 13:47:36;;;;;;;10.57;2.60;;;25.20;18.00;;;;;;5037288;28;20048;-77
2022/02/03 13:50:31;;;;;;;;;;;26.40;17.10;;;;;;5049643;28;20115;-77
2022/02/03 13:53:16;;;;;;;16.50;4.22;;;26.90;17.20;;;;;;5048709;28;19921;-77
2022/02/03 14:22:05;;;;;;;5.95;2.05;;;29.30;14.00;;;;;;5047471;28;20044;-77
2022/02/03 14:27:20;;;;;;;16.30;6.30;;;29.80;14.40;;;;;;5049970;28;19923;-80
2022/02/03 14:29:54;;;;;;;5.25;2.40;;;30.50;13.70;;;;;;5048953;28;20029;-81
2022/02/03 14:32:35;;;;;;;10.10;4.03;;;30.40;13.00;;;;;;5048287;28;20052;-77
2022/02/03 14:35:12;;;;;;;5.03;2.25;;;28.80;13.90;;;;;;5034983;28;20033;-77
2022/02/03 14:37:58;;;;;;;6.15;2.70;;;27.30;15.10;;;;;;5034265;28;20037;-75
2022/02/03 14:43:05;;;;;;;4.55;1.80;;;25.40;16.40;;;;;;5049571;28;20033;-80
2022/02/03 14:45:31;;;;;;;6.70;2.40;;;24.30;17.40;;;;;;5028719;28;20029;-74
2022/02/03 14:47:58;;;;;;;5.78;2.40;;;24.70;17.60;;;;;;5035818;28;20071;-80
2022/02/03 14:50:45;;;;;;;9.60;2.13;;;25.00;17.00;;;;;;5048133;28;20494;-77
2022/02/03 14:53:29;;;;;;;8.65;1.98;;;24.70;17.20;;;;;;5049309;28;20048;-80
2022/02/03 14:58:40;;;;;;;5.75;2.20;;;24.30;17.70;;;;;;5046371;28;20125;-79
2022/02/03 15:01:13;;;;;;;5.40;1.83;;;24.50;17.80;;;;;;5047277;28;20041;-80
2022/02/03 15:03:39;;;;;;;6.05;1.98;;;24.20;16.90;;;;;;5030954;28;20040;-77
2022/02/03 15:06:22;;;;;;;10.63;5.22;;;22.70;18.80;;;;;;5048317;28;20196;-78
2022/02/03 15:08:58;;;;;;;9.65;2.38;;;21.00;20.20;;;;;;5049281;28;20121;-81
2022/02/03 15:11:39;;;;;;;10.25;2.65;;;19.90;21.50;;;;;;5049294;28;20052;-79
2022/02/03 15:14:09;;;;;;;9.65;3.88;;;18.70;22.10;;;;;;5046880;28;20106;-78
2022/02/03 15:16:36;;;;;;;6.43;2.92;;;18.00;23.30;;;;;;5049128;28;20041;-77
2022/02/03 15:19:07;;;;;;;;;;;17.60;23.70;;;;;;5049329;28;20033;-81
2022/02/03 15:21:38;;;;;;;10.93;4.43;;;17.10;23.70;;;;;;5015324;28;20443;-80
2022/02/03 15:24:05;;;;;;;14.02;4.63;;;16.80;24.30;;;;;;5047772;28;20070;-78
2022/02/03 15:26:39;;;;;;;13.07;5.30;;;16.20;24.40;;;;;;5048876;28;20045;-78
2022/02/03 15:29:13;;;;;;;13.88;7.90;;;15.80;24.80;;;;;;5039906;28;20037;-80
2022/02/03 15:31:42;;;;;;;15.52;6.28;;;15.30;25.50;;;;;;5047421;28;20033;-77
2022/02/03 15:34:11;;;;;;;9.55;4.43;;;15.00;26.00;;;;;;5047616;28;20138;-78
2022/02/03 15:36:47;;;;;;;7.40;2.92;;;14.80;26.40;;;;;;5050920;28;20107;-80
2022/02/03 15:39:44;;;;;;;;;;;;;;;;;;;;;
2022/02/03 15:42:14;;;;;;;8.38;1.95;;;14.20;27.00;;;;;;5053561;28;20059;-80
2022/02/03 15:45:02;;;;;;;26.10;2.65;;;13.80;26.90;;;;;;5051619;28;20120;-79
2022/02/03 15:47:35;;;;;;;17.88;3.45;;;13.50;27.50;;;;;;5051357;28;20178;-81
2022/02/03 16:01:21;;;;;;;5.15;1.98;;;12.50;29.10;;;;;;5035939;28;20151;-78
2022/02/03 16:17:50;;;;;;;30.75;6.03;;;11.30;31.00;;;;;;5051989;28;20060;-78
2022/02/03 16:20:24;;;;;;;16.33;5.05;;;11.10;31.60;;;;;;5034040;28;20132;-77
2022/02/03 16:50:19;;;;;;;42.72;18.08;;;9.70;35.10;;;;;;5050545;28;20056;-80
2022/02/03 16:54:30;;;;;;;68.55;33.75;;;9.20;36.30;;;;;;5035577;28;20099;-80
2022/02/03 16:57:01;;;;;;;69.50;31.95;;;9.00;36.40;;;;;;5050930;28;20103;-77
2022/02/03 16:59:49;;;;;;;44.60;20.25;;;8.90;37.00;;;;;;5050405;28;20049;-80
2022/02/03 17:02:16;;;;;;;31.42;17.70;;;8.70;37.40;;;;;;5050396;28;20137;-77
2022/02/03 17:04:42;;;;;;;24.27;12.48;;;8.60;37.60;;;;;;5049993;28;20040;-77
2022/02/03 17:07:13;;;;;;;26.58;15.30;;;8.60;37.60;;;;;;5049864;28;20394;-77
2022/02/03 17:09:39;;;;;;;58.55;32.22;;;8.50;37.90;;;;;;5049934;28;20029;-77
2022/02/03 17:12:14;;;;;;;62.92;35.97;;;8.50;37.90;;;;;;5033862;28;20033;-80
2022/02/03 17:14:40;;;;;;;69.90;38.22;;;8.40;38.20;;;;;;5050102;28;20237;-77
2022/02/03 17:17:11;;;;;;;68.15;36.65;;;8.30;38.40;;;;;;5047924;28;20037;-76
2022/02/03 17:19:47;;;;;;;70.25;39.50;;;8.30;38.50;;;;;;5049089;28;20048;-81
2022/02/03 17:22:24;;;;;;;101.88;47.65;;;8.30;38.50;;;;;;5049121;28;20033;-77
2022/02/03 17:28:52;;;;;;;127.63;60.58;;;8.10;38.80;;;;;;5043000;28;20401;-81
2022/02/03 17:31:48;;;;;;;146.23;66.32;;;8.10;38.80;;;;;;5035255;28;20068;-77
2022/02/03 18:05:12;;;;;;;48.83;24.85;;;7.40;40.80;;;;;;5049754;28;20094;-77
2022/02/03 18:07:47;;;;;;;45.10;23.48;;;7.40;41.10;;;;;;5048914;28;20398;-81
2022/02/03 18:35:26;;;;;;;73.68;36.58;;;7.00;42.90;;;;;;5033641;28;20073;-79
2022/02/03 18:46:51;;;;;;;71.30;29.23;;;6.70;43.60;;;;;;5035640;28;20134;-80
2022/02/03 18:54:19;;;;;;;60.60;29.38;;;6.50;44.40;;;;;;5048331;28;20049;-78
2022/02/03 19:27:25;;;;;;;61.97;30.98;;;6.00;45.50;;;;;;5052499;28;20033;-77
2022/02/03 20:07:00;;;;;;;49.67;25.30;;;5.50;47.10;;;;;;5028524;28;20140;-77
2022/02/03 20:12:24;;;;;;;45.25;23.35;;;5.40;47.30;;;;;;5027805;28;20037;-76
2022/02/03 20:14:51;;;;;;;43.60;22.15;;;5.40;47.60;;;;;;4996569;28;20045;-77
2022/02/03 20:17:27;;;;;;;46.80;21.85;;;5.30;47.00;;;;;;5028620;28;20042;-76
2022/02/03 20:19:54;;;;;;;;;;;5.40;47.60;;;;;;5017424;28;20045;-80
2022/02/03 20:22:26;;;;;;;47.30;22.83;;;5.30;46.80;;;;;;5029456;28;19925;-80
2022/02/03 20:24:52;;;;;;;53.20;26.13;;;5.30;47.40;;;;;;5019592;28;21011;-80
2022/02/03 20:27:23;;;;;;;65.97;29.88;;;5.30;47.70;;;;;;5032060;28;20029;-80
2022/02/03 20:29:50;;;;;;;65.00;31.80;;;5.20;47.90;;;;;;4998552;28;20034;-77
2022/02/03 20:32:20;;;;;;;75.35;35.97;;;5.20;48.10;;;;;;5031217;28;20037;-80
2022/02/03 20:34:51;;;;;;;80.47;35.95;;;5.20;48.20;;;;;;5030640;28;20410;-77
2022/02/03 20:37:18;;;;;;;72.72;36.35;;;5.10;48.40;;;;;;5007140;28;20038;-80
2022/02/03 20:39:44;;;;;;;;;;;5.10;48.40;;;;;;5030672;28;20477;-81
2022/02/03 20:42:16;;;;;;;61.03;32.78;;;5.00;47.80;;;;;;5031149;28;19955;-81
2022/02/03 20:45:04;;;;;;;67.05;35.38;;;5.00;48.40;;;;;;5030909;28;20045;-77
2022/02/03 20:47:43;;;;;;;73.47;36.95;;;4.90;48.80;;;;;;5030063;28;20502;-81
2022/02/03 20:50:17;;;;;;;76.10;41.10;;;4.90;49.10;;;;;;5026149;28;20123;-80
2022/02/03 20:52:43;;;;;;;64.93;34.10;;;4.90;48.80;;;;;;5023305;28;20044;-80
2022/02/03 20:55:09;;;;;;;;;;;4.80;49.00;;;;;;5033986;28;20041;-80
2022/02/03 20:57:36;;;;;;;53.80;27.83;;;4.80;48.40;;;;;;5033633;28;19921;-78
2022/02/03 21:05:26;;;;;;;66.43;35.58;;;4.70;49.30;;;;;;5034418;28;20285;-78
2022/02/03 21:08:01;;;;;;;60.03;28.92;;;4.70;48.90;;;;;;5033474;28;20032;-76
2022/02/03 21:10:31;;;;;;;71.20;35.65;;;4.60;49.40;;;;;;5043791;28;20056;-77
2022/02/03 21:12:58;;;;;;;68.18;33.75;;;4.60;49.60;;;;;;5046354;28;20044;-80
2022/02/03 21:15:34;;;;;;;85.07;41.22;;;4.60;49.60;;;;;;5049113;28;20111;-77
2022/02/03 21:18:16;;;;;;;75.07;34.83;;;4.60;49.70;;;;;;5048373;28;20083;-76
2022/02/03 21:20:44;;;;;;;56.08;28.15;;;4.60;50.00;;;;;;4993656;28;20049;-80
2022/02/03 21:23:12;;;;;;;56.40;26.65;;;4.50;49.80;;;;;;5020159;28;20042;-80
2022/02/03 21:25:44;;;;;;;53.35;24.63;;;4.50;50.00;;;;;;4991021;28;20109;-77
2022/02/03 21:28:21;;;;;;;69.95;31.23;;;4.50;50.20;;;;;;4971720;28;20525;-77
2022/02/03 21:30:48;;;;;;;;;;;4.50;50.30;;;;;;4992639;28;20042;-76
2022/02/03 21:33:21;;;;;;;;;;;4.50;49.70;;;;;;5007491;28;19914;-76
2022/02/03 21:35:48;;;;;;;58.15;26.50;;;4.40;49.10;;;;;;4992347;28;19914;-78
2022/02/03 21:38:16;;;;;;;57.88;26.10;;;4.40;49.30;;;;;;4991751;28;20097;-77
2022/02/03 21:40:45;;;;;;;60.35;27.67;;;4.40;50.00;;;;;;4991056;28;20609;-77
2022/02/03 21:43:36;;;;;;;52.97;25.70;;;4.40;49.60;;;;;;5007705;28;20548;-77
2022/02/03 21:46:04;;;;;;;63.17;28.13;;;4.40;50.30;;;;;;4991669;28;20096;-80
2022/02/03 21:48:30;;;;;;;68.25;32.17;;;4.40;50.40;;;;;;4975326;28;20092;-80
2022/02/03 21:51:00;;;;;;;;;;;4.40;50.60;;;;;;4984388;28;20049;-80
2022/02/03 21:53:32;;;;;;;59.20;30.92;;;4.40;49.90;;;;;;5050197;28;20596;-77
2022/02/03 21:55:59;;;;;;;63.42;30.63;;;4.40;50.40;;;;;;5048801;28;20041;-80
2022/02/03 21:58:30;;;;;;;64.25;28.63;;;4.40;50.60;;;;;;5019245;28;20050;-79
2022/02/03 22:01:01;;;;;;;87.68;37.20;;;4.40;50.80;;;;;;5046517;28;20745;-80
2022/02/03 22:03:29;;;;;;;101.78;41.38;;;4.30;50.90;;;;;;5048339;28;20059;-77
2022/02/03 22:06:00;;;;;;;94.32;39.60;;;4.30;51.00;;;;;;5050620;28;20112;-81
2022/02/03 22:08:31;;;;;;;92.45;38.78;;;4.40;51.10;;;;;;5049946;28;20040;-80
2022/02/03 22:10:59;;;;;;;90.68;38.33;;;4.30;52.10;;;;;;5031611;28;20489;-80
2022/02/03 22:13:50;;;;;;;72.50;34.67;;;4.30;51.20;;;;;;5042727;28;20072;-77
2022/02/03 22:16:22;;;;;;;78.53;37.28;;;4.30;51.40;;;;;;5048705;28;20322;-80
2022/02/03 22:18:52;;;;;;;85.38;38.38;;;4.30;51.30;;;;;;5048684;28;20124;-77
2022/02/03 22:21:49;;;;;;;82.18;36.58;;;4.20;51.30;;;;;;5048577;28;20104;-77
2022/02/03 22:24:27;;;;;;;94.30;39.35;;;4.20;51.40;;;;;;5047979;28;20033;-80
2022/02/03 22:38:36;;;;;;;77.32;36.92;;;4.20;51.80;;;;;;5048226;28;20056;-80
2022/02/03 22:41:17;;;;;;;75.63;38.60;;;4.10;51.90;;;;;;5034298;28;20102;-79
2022/02/03 22:43:31;;;;;;;78.43;38.78;;;4.10;52.10;;;;;;5047989;28;20047;-80
2022/02/03 22:46:14;;;;;;;91.95;45.05;;;4.10;52.10;;;;;;5042005;28;20055;-77
2022/02/03 22:48:40;;;;;;;128.73;53.35;;;4.10;52.10;;;;;;5049849;28;20037;-77
2022/02/03 22:51:08;;;;;;;131.40;51.08;;;4.10;52.20;;;;;;5050219;28;20502;-80
2022/02/03 22:53:36;;;;;;;378.38;143.20;;;4.10;52.10;;;;;;5047890;28;20049;-80
2022/02/03 22:56:17;;;;;;;196.02;82.93;;;4.10;52.30;;;;;;5049721;28;20049;-80
2022/02/03 23:01:30;;;;;;;173.13;66.13;;;4.00;52.00;;;;;;5044628;28;20049;-79
2022/02/03 23:03:56;;;;;;;120.07;51.00;;;4.10;52.10;;;;;;5031052;28;20478;-78
2022/02/03 23:06:23;;;;;;;124.28;50.75;;;4.00;53.30;;;;;;5037193;28;20474;-80
2022/02/03 23:08:58;;;;;;;132.13;56.80;;;3.90;52.80;;;;;;5042179;28;20378;-80
2022/02/03 23:20:18;;;;;;;83.15;38.53;;;3.90;52.40;;;;;;5046629;28;20505;-80
2022/02/03 23:22:33;;;;;;;93.97;42.42;;;3.90;52.80;;;;;;5047751;28;20063;-77
2022/02/03 23:25:22;;;;;;;95.60;40.72;;;3.90;53.00;;;;;;5047623;28;20029;-77
2022/02/03 23:30:38;;;;;;;86.28;37.92;;;3.80;53.10;;;;;;5048193;28;20123;-80
2022/02/03 23:33:07;;;;;;;85.07;38.97;;;3.80;53.30;;;;;;5031926;28;20115;-80
2022/02/03 23:35:54;;;;;;;89.63;39.25;;;3.70;53.40;;;;;;5047900;28;20064;-80
2022/02/03 23:50:31;;;;;;;105.95;46.13;;;3.80;53.20;;;;;;5049097;28;20084;-80
